Wednesday, November 22, 2017, 7:53 AM EST
Back to Local

KNHK, Nas Patuxent River Md

Location: Patuxent River, MD, United States Lat: 38.3
Local Time: 7:53 AM EST (12:53 GMT) Lon: -76.4
Time Zone: US/Eastern Elev: 39 ft

Show me the last for .
Show Decoded

2017-11-22 06:52 METAR KNHK 221152Z 21007KT 10SM -RA FEW020 BKN040 OVC080 13/12 A2990 RMK AO2
                 RAE1055B51 SLP127 P0000 60040 70065 T01280117 10144 20111 58002 =
2017-11-22 05:52 METAR KNHK 221052Z 20004KT 10SM -RA FEW025 BKN040 OVC070 12/12 A2990 RMK AO2
                 SLP127 P0010 T01220117 $ =
2017-11-22 05:34 METAR KNHK 221034Z AUTO 21006KT 5SM -RA BR SCT028 BKN041 OVC075 12/12 A2991 RMK
                 AO2 P0010 T01220117 $ =
2017-11-22 05:21 METAR KNHK 221021Z AUTO 22006KT 2 1/2SM +RA BR SCT024 BKN031 OVC040 12/11 A2992
                 RMK AO2 CIG 026 RY24 P0007 T01170111 $ =
2017-11-22 04:52 METAR KNHK 220952Z AUTO 26007KT 7SM -RA SCT020 OVC026 12/11 A2993 RMK AO2 RAB15
                 CIG 020 RY24 SLP135 P0006 T01220111 $ =
2017-11-22 04:19 METAR KNHK 220919Z AUTO 29008KT 5SM RA BR FEW015 BKN027 OVC080 12/12 A2993 RMK
                 AO2 RAB15 P0002 T01220117 $ =
2017-11-22 03:52 METAR KNHK 220852Z AUTO 00000KT 10SM SCT075 12/11 A2991 RMK AO2 SLP128 60024
                 T01170111 58032 $ =
2017-11-22 02:52 METAR KNHK 220752Z AUTO 19003KT 10SM FEW075 BKN100 BKN120 13/12 A2994 RMK AO2
                 RAE30 SLP139 P0009 T01330122 $ =
2017-11-22 02:12 METAR KNHK 220712Z AUTO 21008KT 5SM -RA BR FEW037 BKN055 OVC090 14/12 A2996 RMK
                 AO2 P0008 T01390122 $ =
2017-11-22 02:05 METAR KNHK 220705Z AUTO 19006KT 2 1/2SM RA BR FEW037 BKN050 OVC080 13/12 A2996
                 RMK AO2 P0007 T01330122 $ =
2017-11-22 01:52 METAR KNHK 220652Z AUTO 18008G16KT 4SM RA BR BKN060 OVC080 13/12 A2997 RMK AO2
                 SLP150 P0015 T01330117 $ =
2017-11-22 00:52 METAR KNHK 220552Z AUTO 24006KT 8SM -RA BKN040 BKN075 OVC090 12/11 A3000 RMK AO2
                 RAB0456 SLP160 P0025 60025 T01220111 10139 20117 56019 $ =
2017-11-22 00:39 METAR KNHK 220539Z AUTO 23004KT 1 3/4SM +RA BR BKN041 OVC070 12/11 A3001 RMK AO2
                 VIS 1V4 RAB0456 PRESFR P0024 T01170111 $ =
2017-11-22 00:34 METAR KNHK 220534Z AUTO 24010KT 1 1/4SM RA BR BKN040 OVC070 12/11 A3002 RMK AO2
                 RAB0456 P0018 T01170111 $ =
2017-11-22 00:27 METAR KNHK 220527Z AUTO 22004KT 1 1/2SM +RA BR SCT039 OVC070 12/11 A3002 RMK AO2
                 RAB0456 P0013 T01220111 $ =
2017-11-21 23:52 METAR KNHK 220452Z AUTO 21007KT 10SM FEW060 BKN075 OVC090 13/11 A3002 RMK AO2
                 SLP167 T01330106 401610067 $ =
2017-11-21 22:52 METAR KNHK 220352Z 19004KT 10SM BKN085 BKN180 BKN250 13/09 A3004 RMK AO2 SLP171
                 T01330094 $ =
2017-11-21 21:52 METAR KNHK 220252Z 21005KT 10SM SCT075 SCT180 BKN250 14/09 A3006 RMK SLP179
                 T01390089 58002 =
2017-11-21 20:52 METAR KNHK 220152Z 18007KT 10SM FEW075 SCT180 BKN250 13/08 A3007 RMK AO2 SLP181
                 T01330083 $ =
2017-11-21 19:52 METAR KNHK 220052Z 18010KT 10SM FEW180 BKN250 14/07 A3007 RMK AO2 SLP182
                 T01390072 $ =
2017-11-21 18:52 METAR KNHK 212352Z 17007KT 10SM FEW180 BKN250 13/06 A3006 RMK AO2 SLP181
                 T01280061 10161 20122 56001 $ =
2017-11-21 17:52 METAR KNHK 212252Z 16006KT 10SM FEW180 BKN250 13/07 A3006 RMK AO2 SLP181
                 T01280067 $ =
2017-11-21 16:52 METAR KNHK 212152Z 14005KT 10SM FEW180 BKN250 13/08 A3006 RMK AO2 SLP180
                 T01330078 $ =
2017-11-21 15:52 METAR KNHK 212052Z 18008KT 10SM FEW180 BKN250 16/07 A3007 RMK AO2 SLP182
                 T01560067 55012 $ =
2017-11-21 14:52 METAR KNHK 211952Z 20006KT 10SM SCT180 BKN250 16/06 A3007 RMK AO2 SLP182
                 T01610056 =
2017-11-21 13:52 METAR KNHK 211852Z 20010KT 10SM FEW180 BKN250 16/04 A3008 RMK AO2 SLP185
                 T01560039 =
2017-11-21 12:52 METAR KNHK 211752Z 20010KT 10SM FEW180 BKN250 15/03 A3010 RMK AO2 SLP193
                 T01500028 10150 20067 58029 VISNO RY24 =
2017-11-21 11:52 METAR KNHK 211652Z 20009KT 160V220 10SM FEW180 BKN260 14/00 A3015 RMK AO2 SLP208
                 T01440000 VISNO RY24 $ =
2017-11-21 10:52 METAR KNHK 211552Z 21012G16KT 10SM SCT280 13/M02 A3017 RMK AO2 SLP218 T01281017
                 $ =
2017-11-21 09:52 METAR KNHK 211452Z 22016G25KT 10SM SCT280 11/M02 A3019 RMK AO2 SLP223 T01111017
                 53003 =
2017-11-21 08:52 METAR KNHK 211352Z COR 22014G23KT 10SM SCT280 09/M02 A3018 RMK AO2 SLP220
                 T00941017 =

Support USWX by starting your Amazon purchase here.